Steptoe Valley North, Nevada Weather observations

Data are for 10 minute period ending at time listed.
 Day   Time   Solar   Ave.   Ave.  Ave.  Vector  Max.   Baro.   Total    
  of    of     Rad.   Air    Rel.  Wind   Wind   Wind  Press.  Precip.   
Year   Day            Temp.  Hum.  Speed  Dir.   Gust                    
2017   (PST)  Kw/m2    F      %     mph   deg.    mph    mb.     in.     
-------------------------------------------------------------------------
  84    2:00   0.00   39.3    85    5.9   168     7.7   820.3    0.01 
  84    2:10   0.00   39.0    87    5.7   167     8.3   820.2    0.00 
  84    2:20   0.00   38.9    88    6.8   164     8.8   820.1    0.00 
  84    2:30   0.00   38.7    89    6.3   177     8.8   820.1    0.00 
  84    2:40   0.00   38.4    88    5.8   185     7.7   820.1    0.01 
  84    2:50   0.00   38.1    90    5.9   198     7.7   820.1    0.00 
  84    3:00   0.00   38.0    90    4.7   202     7.7   819.9    0.00 
  84    3:10   0.00   38.2    90    3.7   222     5.3   819.9    0.01 
  84    3:20   0.00   38.1    91    4.2   216     6.4   819.8    0.01 
  84    3:30   0.00   38.0    92    3.8   220     6.2   819.6    0.00 
  84    3:40   0.00   37.9    92    4.6   198     5.9   819.6    0.00 
  84    3:50   0.00   37.8    93    3.5   199     5.0   819.7    0.01 
  84    4:00   0.00   37.8    94    3.1   210     4.4   819.7    0.00 
  84    4:10   0.00   37.8    94    2.4   230     3.8   819.6    0.01 
  84    4:20   0.00   37.7    94    2.8   244     5.3   819.7    0.00 
  84    4:30   0.00   37.4    94    4.1   262     5.4   819.7    0.01 
  84    4:40   0.00   37.3    95    4.1   276     5.6   819.8    0.01 
  84    4:50   0.00   36.5    94    8.3   299    15.3   819.9    0.01 
  84    5:00   0.00   33.3    94    9.8   324    13.4   820.1    0.00 
  84    5:10   0.00   32.7    96    8.8   331    11.8   820.2    0.01 
  84    5:20   0.00   32.5    97    7.9   331    10.3   820.3    0.00 
  84    5:30   0.00   32.3    97    8.3   329    11.2   820.3    0.00 
  84    5:40   0.00   32.3    98    7.7   336    10.0   820.3    0.00 
  84    5:50   0.00   32.3    98    7.2   340     9.7   820.3    0.00 
  84    6:00   0.00   32.3    98    6.8   345     8.7   820.3    0.00 
  84    6:10   0.01   32.3    98    5.5     2     7.8   820.3    0.00 
  84    6:20   0.01   32.3    98    3.7    22     5.6   820.3    0.00 
  84    6:30   0.01   32.3    98    2.9    37     4.1   820.4    0.00 
  84    6:40   0.02   32.5    98    1.8    43     2.9   820.5    0.00 
  84    6:50   0.02   32.5    98    0.3    43     1.2   820.5    0.00 
  84    7:00   0.02   32.3    98    0.0     0     0.0   820.5    0.00 
  84    7:10   0.02   32.5    98    0.0     0     0.0   820.5    0.00 
  84    7:20   0.03   32.3    98    0.0     0     0.0   820.5    0.00 
  84    7:30   0.03   32.7    98    0.0     0     0.0   820.5    0.00 
  84    7:40   0.04   32.6    98    0.0     0     0.0   820.5    0.01 
  84    7:50   0.05   32.6    98    0.0     0     0.0   820.5    0.01 
  84    8:00   0.06   32.7    98    0.0     0     0.0   820.5    0.02 
  84    8:10   0.08   33.3    98    0.0     0     0.0   820.5    0.01 
  84    8:20   0.09   33.3    98    1.3   334     3.9   820.5    0.01 
  84    8:30   0.10   33.1    98    3.7   339     4.8   820.4    0.02 
  84    8:40   0.12   33.3    98    3.8   358     4.7   820.4    0.01 
  84    8:50   0.17   33.8    98    4.6   360     5.7   820.4    0.00 
  84    9:00   0.18   34.4    98    5.3   342     6.4   820.4    0.00 
  84    9:10   0.19   35.1    98    5.4   346     6.9   820.3    0.00 
  84    9:20   0.24   35.7    97    4.8   348     6.1   820.2    0.00 
  84    9:30   0.29   36.2    96    4.4    10     7.4   820.1    0.00 
  84    9:40   0.28   36.9    93    5.4   358     8.3   820.0    0.00 
  84    9:50   0.25   37.3    90    6.2   344     8.6   819.8    0.00 
  84   10:00   0.19   37.4    90    5.4   334     8.5   819.9    0.00 
  84   10:10   0.25   37.7    90    5.9   339     8.8   819.9    0.00 
  84   10:20   0.28   38.3    88    5.3   336     8.0   819.8    0.00 
  84   10:30   0.27   38.5    86    4.4   346     6.7   819.8    0.00 
  84   10:40   0.23   38.8    84    3.9   354     6.5   819.8    0.00 
  84   10:50   0.26   39.1    82    2.5   354     5.1   819.7    0.00 
  84   11:00   0.32   39.7    79    3.4    40     5.3   819.7    0.00 
  84   11:10   0.33   40.1    78    3.0    49     5.5   819.6    0.00 
  84   11:20   0.35   40.5    77    3.9    17     7.7   819.6    0.00 
  84   11:30   0.53   40.9    77    6.4   336    10.5   819.5    0.00 
  84   11:40   0.63   41.9    74    5.2   344     9.3   819.3    0.00 
  84   11:50   0.54   42.3    71    6.4    17    11.2   819.1    0.00 
  84   12:00   0.61   42.6    68    5.4    11    11.9   818.9    0.00 
  84   12:10   0.47   42.9    67    7.0    18    11.6   818.9    0.00 
  84   12:20   0.59   42.9    69    6.9    34    10.4   818.8    0.00 
  84   12:30   0.47   42.8    67    6.1    40    12.1   818.7    0.00 
  84   12:40   0.73   43.6    63    6.2   350    10.2   818.6    0.00 
  84   12:50   0.64   43.9    64    7.9     0    14.5   818.4    0.00 
  84   13:00   0.81   44.6    64    6.7    20    10.4   818.3    0.00 
  84   13:10   0.69   44.6    54    5.5   331    11.0   818.3    0.00 
  84   13:20   0.48   45.2    55    7.2   323    11.1   818.2    0.00 
  84   13:30   0.34   44.6    57    6.8   306    11.7   818.2    0.00 
  84   13:40   0.29   44.5    60    7.7   322    13.0   818.2    0.00 
  84   13:50   0.33   44.6    55    5.1   347     9.4   818.1    0.00 
  84   14:00   0.36   45.3    56    2.9    30    10.0   818.0    0.00 
  84   14:10   0.34   45.2    52    6.1    10    10.5   818.0    0.00 
  84   14:20   0.51   45.9    50    6.3   347    10.8   818.0    0.00 
  84   14:30   0.21   45.4    51    7.3   327    12.3   818.0    0.00 
  84   14:40   0.13   45.0    54    8.8   331    15.5   818.0    0.00 
  84   14:50   0.10   44.1    58   10.4   337    13.5   818.1    0.00 
  84   15:00   0.11   43.8    57   10.3   330    13.2   818.3    0.00 
  84   15:10   0.13   43.9    58    8.5   341    11.2   818.2    0.00 
  84   15:20   0.14   44.0    58    9.2   351    12.0   818.2    0.00 
  84   15:30   0.13   43.8    57    7.7   346    10.6   818.3    0.00 
  84   15:40   0.12   43.7    58    8.6   359    10.8   818.2    0.00 
  84   15:50   0.11   43.8    58    7.8   346     9.9   818.3    0.00 
  84   16:00   0.12   43.8    57    7.5   346    11.7   818.3    0.00 
  84   16:10   0.13   44.0    56    5.0   345     7.4   818.3    0.00 
  84   16:20   0.11   44.1    57    5.3   347     8.6   818.4    0.00 
  84   16:30   0.10   44.2    58    4.4   333     6.9   818.4    0.00 
  84   16:40   0.10   44.2    56    2.8   338     6.2   818.4    0.00 
  84   16:50   0.09   44.3    54    3.6     4     8.0   818.4    0.00 
  84   17:00   0.06   44.2    53    5.4   336     7.1   818.5    0.00 
  84   17:10   0.05   44.0    54    4.5   335     6.6   818.6    0.00 
  84   17:20   0.04   43.7    56    4.8   338     6.5   818.6    0.00 
  84   17:30   0.03   43.4    58    4.6   338     6.4   818.7    0.00 
  84   17:40   0.02   42.8    61    3.8   336     7.4   818.7    0.00 
  84   17:50   0.01   42.2    60    2.4   350     3.6   818.9    0.00 
  84   18:00   0.00   42.2    59    1.3   347     2.3   818.9    0.00 
  84   18:10   0.00   42.4    59    1.5   342     2.4   819.1    0.00 
  84   18:20   0.00   42.1    64    1.3   313     3.0   819.2    0.00 
  84   18:30   0.00   41.6    69    1.8   291     2.7   819.3    0.00 
  84   18:40   0.00   41.3    71    1.8   268     2.7   819.3    0.00 
  84   18:50   0.00   41.0    71    2.1   263     3.3   819.3    0.00 
  84   19:00   0.00   40.8    73    1.5   263     2.0   819.3    0.00 
  84   19:10   0.00   40.7    74    1.7   275     2.6   819.4    0.00 
  84   19:20   0.00   39.8    75    2.3   283     3.7   819.5    0.00 
  84   19:30   0.00   39.5    78    2.3    87     3.7   819.6    0.00 
  84   19:40   0.00   39.5    77    1.4   112     2.9   819.6    0.00 
  84   19:50   0.00   39.5    78    0.7   212     2.9   819.7    0.00 
  84   20:00   0.00   39.5    76    2.6   110     4.3   819.6    0.00 
  84   20:10   0.00   38.7    77    2.6    70     4.5   819.6    0.00 
  84   20:20   0.00   36.9    81    2.0    73     2.8   819.6    0.00 
  84   20:30   0.00   36.6    83    1.5    82     2.9   819.7    0.00 
  84   20:40   0.00   35.1    85    0.5   249     2.6   819.7    0.00 
  84   20:50   0.00   34.5    86    1.2     8     2.8   819.8    0.00 
  84   21:00   0.00   34.4    87    0.4   171     4.0   819.7    0.00 
  84   21:10   0.00   35.1    86    3.3   230     4.4   819.8    0.00 
  84   21:20   0.00   34.3    83    2.9   296     6.5   819.9    0.00 
  84   21:30   0.00   31.9    88    3.2    18     5.5   819.9    0.00 
  84   21:40   0.00   31.1    89    0.4    23     1.8   820.0    0.00 
  84   21:50   0.00   30.3    90    1.9   129     3.3   819.9    0.00 
  84   22:00   0.00   30.3    92    3.3   134     5.5   819.9    0.00 
  84   22:10   0.00   30.3    93    2.4   125     3.4   819.9    0.00 
  84   22:20   0.00   30.2    91    2.3   138     2.9   819.9    0.00 
  84   22:30   0.00   29.5    90    1.9   136     3.7   820.0    0.00 
  84   22:40   0.00   29.0    92    1.4   353     3.8   820.1    0.00 
  84   22:50   0.00   28.9    90    2.3   340     4.1   820.2    0.00 
  84   23:00   0.00   27.4    92    1.8   350     3.2   820.3    0.00 
  84   23:10   0.00   27.4    93    0.0     0     0.0   820.3    0.00 
  84   23:20   0.00   27.7    94    1.5   203     3.1   820.4    0.00 
  84   23:30   0.00   27.6    95    3.9   170     4.8   820.2    0.00 
  84   23:40   0.00   27.9    95    3.8   160     4.2   820.1    0.00 
  84   23:50   0.00   27.6    94    3.3   126     3.9   819.9    0.00 
  85    0:00   0.00   27.8    95    4.1    98     4.9   819.7    0.00 
  85    0:10   0.00   27.8    93    2.7    49     3.7   819.9    0.00 
  85    0:20   0.00   25.2    91    2.9   353     4.6   819.9    0.00 
  85    0:30   0.00   26.3    97    3.0   334     6.2   820.0    0.00 
  85    0:40   0.00   26.7    96    2.6   270     5.1   820.0    0.00 
  85    0:50   0.00   26.3    96    1.6   274     2.6   820.0    0.00 
  85    1:00   0.00   27.1    96    0.4   234     5.3   819.9    0.00 
  85    1:10   0.00   26.0    96    3.5   146     5.4   819.9    0.00 
  85    1:20   0.00   27.1    97    1.5   114     2.9   819.9    0.00 
  85    1:30   0.00   27.0    96    0.0   114     0.4   819.9    0.00 
  85    1:40   0.00   27.2    97    0.1   114     0.7   819.7    0.00 
  85    1:50   0.00   26.2    96    0.0   114     0.4   819.5    0.00 

Return to Steptoe Valley North graphs page.


Western Regional Climate Center,wrcc@dri.edu